sensor_id;sensor_type;location;lat;lon;timestamp;P1;durP1;ratioP1;P2;durP2;ratioP2
20711;SDS011;10517;50.742;4.224;2023-06-04T00:00:58;2.20;;;1.30;;
20711;SDS011;10517;50.742;4.224;2023-06-04T00:03:23;2.33;;;1.10;;
20711;SDS011;10517;50.742;4.224;2023-06-04T00:05:49;7.50;;;1.90;;
20711;SDS011;10517;50.742;4.224;2023-06-04T00:08:15;2.05;;;1.20;;
20711;SDS011;10517;50.742;4.224;2023-06-04T00:10:40;1.50;;;1.40;;
20711;SDS011;10517;50.742;4.224;2023-06-04T00:13:06;2.33;;;1.40;;
20711;SDS011;10517;50.742;4.224;2023-06-04T00:15:32;2.58;;;1.92;;
20711;SDS011;10517;50.742;4.224;2023-06-04T00:17:57;1.40;;;1.30;;
20711;SDS011;10517;50.742;4.224;2023-06-04T00:20:23;3.22;;;1.60;;
20711;SDS011;10517;50.742;4.224;2023-06-04T00:22:48;1.38;;;1.25;;
20711;SDS011;10517;50.742;4.224;2023-06-04T00:25:14;4.43;;;1.42;;
20711;SDS011;10517;50.742;4.224;2023-06-04T00:27:40;2.20;;;1.48;;
20711;SDS011;10517;50.742;4.224;2023-06-04T00:30:06;1.30;;;1.30;;
20711;SDS011;10517;50.742;4.224;2023-06-04T00:32:31;1.70;;;1.60;;
20711;SDS011;10517;50.742;4.224;2023-06-04T00:34:57;1.40;;;1.25;;
20711;SDS011;10517;50.742;4.224;2023-06-04T00:37:23;1.95;;;1.58;;
20711;SDS011;10517;50.742;4.224;2023-06-04T00:39:50;2.17;;;1.45;;
20711;SDS011;10517;50.742;4.224;2023-06-04T00:42:16;1.50;;;1.40;;
20711;SDS011;10517;50.742;4.224;2023-06-04T00:44:42;1.27;;;1.27;;
20711;SDS011;10517;50.742;4.224;2023-06-04T00:47:11;1.45;;;1.35;;
20711;SDS011;10517;50.742;4.224;2023-06-04T00:49:37;1.75;;;1.65;;
20711;SDS011;10517;50.742;4.224;2023-06-04T00:52:03;1.30;;;1.20;;
20711;SDS011;10517;50.742;4.224;2023-06-04T00:54:30;1.95;;;1.85;;
20711;SDS011;10517;50.742;4.224;2023-06-04T00:56:57;1.30;;;1.27;;
20711;SDS011;10517;50.742;4.224;2023-06-04T00:59:23;1.30;;;1.20;;
20711;SDS011;10517;50.742;4.224;2023-06-04T01:01:50;2.83;;;1.92;;
20711;SDS011;10517;50.742;4.224;2023-06-04T01:07:00;3.20;;;1.40;;
20711;SDS011;10517;50.742;4.224;2023-06-04T01:09:29;3.35;;;1.60;;
20711;SDS011;10517;50.742;4.224;2023-06-04T01:11:56;3.92;;;1.42;;
20711;SDS011;10517;50.742;4.224;2023-06-04T01:14:27;1.50;;;1.40;;
20711;SDS011;10517;50.742;4.224;2023-06-04T01:16:57;1.67;;;1.33;;
20711;SDS011;10517;50.742;4.224;2023-06-04T01:19:39;1.60;;;1.50;;
20711;SDS011;10517;50.742;4.224;2023-06-04T01:22:28;2.00;;;1.40;;
20711;SDS011;10517;50.742;4.224;2023-06-04T01:24:56;1.60;;;1.50;;
20711;SDS011;10517;50.742;4.224;2023-06-04T01:27:27;5.57;;;1.50;;
20711;SDS011;10517;50.742;4.224;2023-06-04T01:29:53;4.65;;;1.65;;
20711;SDS011;10517;50.742;4.224;2023-06-04T01:32:22;3.17;;;1.50;;
20711;SDS011;10517;50.742;4.224;2023-06-04T01:34:48;3.83;;;1.60;;
20711;SDS011;10517;50.742;4.224;2023-06-04T01:37:14;1.60;;;1.48;;
20711;SDS011;10517;50.742;4.224;2023-06-04T01:39:41;2.70;;;1.77;;
20711;SDS011;10517;50.742;4.224;2023-06-04T01:42:07;1.67;;;1.27;;
20711;SDS011;10517;50.742;4.224;2023-06-04T01:44:33;2.35;;;1.95;;
20711;SDS011;10517;50.742;4.224;2023-06-04T01:46:59;1.55;;;1.45;;
20711;SDS011;10517;50.742;4.224;2023-06-04T01:49:25;2.30;;;1.60;;
20711;SDS011;10517;50.742;4.224;2023-06-04T01:51:50;1.50;;;1.40;;
20711;SDS011;10517;50.742;4.224;2023-06-04T01:54:16;4.50;;;1.40;;
20711;SDS011;10517;50.742;4.224;2023-06-04T01:56:42;1.60;;;1.50;;
20711;SDS011;10517;50.742;4.224;2023-06-04T01:59:08;1.60;;;1.50;;
20711;SDS011;10517;50.742;4.224;2023-06-04T02:01:36;1.73;;;1.55;;
20711;SDS011;10517;50.742;4.224;2023-06-04T02:04:02;2.75;;;1.60;;
20711;SDS011;10517;50.742;4.224;2023-06-04T02:06:28;1.70;;;1.60;;
20711;SDS011;10517;50.742;4.224;2023-06-04T02:08:54;2.08;;;1.88;;
20711;SDS011;10517;50.742;4.224;2023-06-04T02:11:20;1.40;;;1.30;;
20711;SDS011;10517;50.742;4.224;2023-06-04T02:13:46;1.30;;;1.20;;
20711;SDS011;10517;50.742;4.224;2023-06-04T02:16:12;2.35;;;1.40;;
20711;SDS011;10517;50.742;4.224;2023-06-04T02:18:37;3.00;;;1.63;;
20711;SDS011;10517;50.742;4.224;2023-06-04T02:21:03;2.22;;;1.60;;
20711;SDS011;10517;50.742;4.224;2023-06-04T02:23:29;2.60;;;2.15;;
20711;SDS011;10517;50.742;4.224;2023-06-04T02:25:54;1.92;;;1.77;;
20711;SDS011;10517;50.742;4.224;2023-06-04T02:28:20;1.45;;;1.30;;
20711;SDS011;10517;50.742;4.224;2023-06-04T02:30:46;2.17;;;1.98;;
20711;SDS011;10517;50.742;4.224;2023-06-04T02:33:12;1.85;;;1.67;;
20711;SDS011;10517;50.742;4.224;2023-06-04T02:35:38;2.92;;;1.73;;
20711;SDS011;10517;50.742;4.224;2023-06-04T02:38:04;3.17;;;1.70;;
20711;SDS011;10517;50.742;4.224;2023-06-04T02:40:30;5.75;;;2.03;;
20711;SDS011;10517;50.742;4.224;2023-06-04T02:42:55;2.30;;;2.10;;
20711;SDS011;10517;50.742;4.224;2023-06-04T02:45:22;1.60;;;1.30;;
20711;SDS011;10517;50.742;4.224;2023-06-04T02:47:48;2.17;;;1.85;;
20711;SDS011;10517;50.742;4.224;2023-06-04T02:50:14;3.50;;;1.77;;
20711;SDS011;10517;50.742;4.224;2023-06-04T02:52:40;3.67;;;1.75;;
20711;SDS011;10517;50.742;4.224;2023-06-04T02:55:07;1.83;;;1.73;;
20711;SDS011;10517;50.742;4.224;2023-06-04T02:57:34;2.83;;;1.50;;
20711;SDS011;10517;50.742;4.224;2023-06-04T03:00:00;2.17;;;1.80;;
20711;SDS011;10517;50.742;4.224;2023-06-04T03:02:26;7.60;;;1.95;;
20711;SDS011;10517;50.742;4.224;2023-06-04T03:04:52;1.67;;;1.55;;
20711;SDS011;10517;50.742;4.224;2023-06-04T03:07:20;2.55;;;1.60;;
20711;SDS011;10517;50.742;4.224;2023-06-04T03:09:47;1.52;;;1.42;;
20711;SDS011;10517;50.742;4.224;2023-06-04T03:12:13;5.18;;;1.58;;
20711;SDS011;10517;50.742;4.224;2023-06-04T03:14:39;2.53;;;1.98;;
20711;SDS011;10517;50.742;4.224;2023-06-04T03:17:05;4.00;;;1.60;;
20711;SDS011;10517;50.742;4.224;2023-06-04T03:19:39;1.45;;;1.35;;
20711;SDS011;10517;50.742;4.224;2023-06-04T03:22:06;2.00;;;1.65;;
20711;SDS011;10517;50.742;4.224;2023-06-04T03:24:34;9.52;;;2.10;;
20711;SDS011;10517;50.742;4.224;2023-06-04T03:27:01;2.88;;;1.70;;
20711;SDS011;10517;50.742;4.224;2023-06-04T03:29:31;2.17;;;1.63;;
20711;SDS011;10517;50.742;4.224;2023-06-04T03:31:57;2.15;;;1.55;;
20711;SDS011;10517;50.742;4.224;2023-06-04T03:34:23;3.20;;;1.77;;
20711;SDS011;10517;50.742;4.224;2023-06-04T03:36:52;1.65;;;1.55;;
20711;SDS011;10517;50.742;4.224;2023-06-04T03:39:18;1.80;;;1.60;;
20711;SDS011;10517;50.742;4.224;2023-06-04T03:41:44;1.80;;;1.60;;
20711;SDS011;10517;50.742;4.224;2023-06-04T03:44:10;1.92;;;1.50;;
20711;SDS011;10517;50.742;4.224;2023-06-04T03:46:38;3.08;;;1.60;;
20711;SDS011;10517;50.742;4.224;2023-06-04T03:49:04;2.30;;;1.48;;
20711;SDS011;10517;50.742;4.224;2023-06-04T03:51:30;3.70;;;1.98;;
20711;SDS011;10517;50.742;4.224;2023-06-04T03:53:57;2.55;;;1.45;;
20711;SDS011;10517;50.742;4.224;2023-06-04T03:56:23;1.70;;;1.33;;
20711;SDS011;10517;50.742;4.224;2023-06-04T03:58:49;4.90;;;1.85;;
20711;SDS011;10517;50.742;4.224;2023-06-04T04:01:15;4.40;;;1.85;;
20711;SDS011;10517;50.742;4.224;2023-06-04T04:03:42;1.60;;;1.50;;
20711;SDS011;10517;50.742;4.224;2023-06-04T04:06:09;3.22;;;1.85;;
20711;SDS011;10517;50.742;4.224;2023-06-04T04:08:35;1.60;;;1.50;;
20711;SDS011;10517;50.742;4.224;2023-06-04T04:11:02;2.75;;;1.50;;
20711;SDS011;10517;50.742;4.224;2023-06-04T04:13:28;11.32;;;1.90;;
20711;SDS011;10517;50.742;4.224;2023-06-04T04:15:53;2.03;;;1.30;;
20711;SDS011;10517;50.742;4.224;2023-06-04T04:18:19;3.22;;;1.98;;
20711;SDS011;10517;50.742;4.224;2023-06-04T04:20:46;4.75;;;1.85;;
20711;SDS011;10517;50.742;4.224;2023-06-04T04:23:12;2.55;;;1.60;;
20711;SDS011;10517;50.742;4.224;2023-06-04T04:25:38;2.33;;;1.85;;
20711;SDS011;10517;50.742;4.224;2023-06-04T04:28:04;2.78;;;1.80;;
20711;SDS011;10517;50.742;4.224;2023-06-04T04:30:35;2.38;;;1.80;;
20711;SDS011;10517;50.742;4.224;2023-06-04T04:33:01;5.65;;;1.40;;
20711;SDS011;10517;50.742;4.224;2023-06-04T04:35:30;1.85;;;1.42;;
20711;SDS011;10517;50.742;4.224;2023-06-04T04:37:57;1.58;;;1.48;;
20711;SDS011;10517;50.742;4.224;2023-06-04T04:40:23;2.03;;;1.60;;
20711;SDS011;10517;50.742;4.224;2023-06-04T04:42:49;3.55;;;1.90;;
20711;SDS011;10517;50.742;4.224;2023-06-04T04:45:15;6.45;;;1.85;;
20711;SDS011;10517;50.742;4.224;2023-06-04T04:47:42;4.63;;;1.95;;
20711;SDS011;10517;50.742;4.224;2023-06-04T04:50:08;3.45;;;1.95;;
20711;SDS011;10517;50.742;4.224;2023-06-04T04:52:33;1.33;;;1.23;;
20711;SDS011;10517;50.742;4.224;2023-06-04T04:54:59;2.28;;;1.75;;
20711;SDS011;10517;50.742;4.224;2023-06-04T04:57:25;2.55;;;1.75;;
20711;SDS011;10517;50.742;4.224;2023-06-04T04:59:50;2.10;;;1.40;;
20711;SDS011;10517;50.742;4.224;2023-06-04T05:02:16;2.08;;;1.40;;
20711;SDS011;10517;50.742;4.224;2023-06-04T05:04:42;1.95;;;1.80;;
20711;SDS011;10517;50.742;4.224;2023-06-04T05:07:07;3.35;;;1.50;;
20711;SDS011;10517;50.742;4.224;2023-06-04T05:09:33;2.50;;;1.77;;
20711;SDS011;10517;50.742;4.224;2023-06-04T05:11:59;3.22;;;1.70;;
20711;SDS011;10517;50.742;4.224;2023-06-04T05:14:25;4.03;;;1.60;;
20711;SDS011;10517;50.742;4.224;2023-06-04T05:16:51;6.88;;;1.80;;
20711;SDS011;10517;50.742;4.224;2023-06-04T05:19:16;3.67;;;1.58;;
20711;SDS011;10517;50.742;4.224;2023-06-04T05:21:42;2.67;;;1.83;;
20711;SDS011;10517;50.742;4.224;2023-06-04T05:24:09;3.08;;;1.50;;
20711;SDS011;10517;50.742;4.224;2023-06-04T05:26:35;1.65;;;1.55;;
20711;SDS011;10517;50.742;4.224;2023-06-04T05:29:02;3.17;;;1.80;;
20711;SDS011;10517;50.742;4.224;2023-06-04T05:31:29;4.78;;;2.15;;
20711;SDS011;10517;50.742;4.224;2023-06-04T05:33:58;2.67;;;1.90;;
20711;SDS011;10517;50.742;4.224;2023-06-04T05:36:26;2.63;;;1.90;;
20711;SDS011;10517;50.742;4.224;2023-06-04T05:38:52;5.68;;;1.92;;
20711;SDS011;10517;50.742;4.224;2023-06-04T05:41:23;1.55;;;1.35;;
20711;SDS011;10517;50.742;4.224;2023-06-04T05:43:49;3.67;;;1.90;;
20711;SDS011;10517;50.742;4.224;2023-06-04T05:46:15;2.25;;;1.85;;
20711;SDS011;10517;50.742;4.224;2023-06-04T05:48:40;3.60;;;2.28;;
20711;SDS011;10517;50.742;4.224;2023-06-04T05:51:06;3.03;;;1.45;;
20711;SDS011;10517;50.742;4.224;2023-06-04T05:53:32;2.25;;;1.80;;
20711;SDS011;10517;50.742;4.224;2023-06-04T05:55:58;1.90;;;1.63;;
20711;SDS011;10517;50.742;4.224;2023-06-04T05:58:23;2.95;;;1.95;;
20711;SDS011;10517;50.742;4.224;2023-06-04T06:00:49;2.90;;;1.88;;
20711;SDS011;10517;50.742;4.224;2023-06-04T06:03:15;5.70;;;1.80;;
20711;SDS011;10517;50.742;4.224;2023-06-04T06:05:41;2.45;;;2.05;;
20711;SDS011;10517;50.742;4.224;2023-06-04T06:08:08;3.20;;;2.15;;
20711;SDS011;10517;50.742;4.224;2023-06-04T06:10:34;4.72;;;1.80;;
20711;SDS011;10517;50.742;4.224;2023-06-04T06:12:59;2.35;;;1.70;;
20711;SDS011;10517;50.742;4.224;2023-06-04T06:15:28;1.92;;;1.60;;
20711;SDS011;10517;50.742;4.224;2023-06-04T06:17:54;5.25;;;2.20;;
20711;SDS011;10517;50.742;4.224;2023-06-04T06:20:20;1.85;;;1.75;;
20711;SDS011;10517;50.742;4.224;2023-06-04T06:22:47;2.35;;;1.90;;
20711;SDS011;10517;50.742;4.224;2023-06-04T06:25:12;3.13;;;2.25;;
20711;SDS011;10517;50.742;4.224;2023-06-04T06:27:40;7.47;;;1.83;;
20711;SDS011;10517;50.742;4.224;2023-06-04T06:30:06;1.77;;;1.60;;
20711;SDS011;10517;50.742;4.224;2023-06-04T06:32:33;2.30;;;1.85;;
20711;SDS011;10517;50.742;4.224;2023-06-04T06:34:59;3.33;;;2.03;;
20711;SDS011;10517;50.742;4.224;2023-06-04T06:37:25;2.53;;;1.95;;
20711;SDS011;10517;50.742;4.224;2023-06-04T06:39:51;3.45;;;1.90;;
20711;SDS011;10517;50.742;4.224;2023-06-04T06:42:17;5.15;;;1.90;;
20711;SDS011;10517;50.742;4.224;2023-06-04T06:44:46;3.13;;;2.10;;
20711;SDS011;10517;50.742;4.224;2023-06-04T06:47:12;2.10;;;1.90;;
20711;SDS011;10517;50.742;4.224;2023-06-04T06:49:41;5.15;;;2.35;;
20711;SDS011;10517;50.742;4.224;2023-06-04T06:52:07;3.53;;;1.70;;
20711;SDS011;10517;50.742;4.224;2023-06-04T06:54:33;3.50;;;1.67;;
20711;SDS011;10517;50.742;4.224;2023-06-04T06:56:59;1.60;;;1.50;;
20711;SDS011;10517;50.742;4.224;2023-06-04T06:59:24;2.95;;;1.98;;
20711;SDS011;10517;50.742;4.224;2023-06-04T07:01:50;2.35;;;1.80;;
20711;SDS011;10517;50.742;4.224;2023-06-04T07:04:16;3.20;;;1.90;;
20711;SDS011;10517;50.742;4.224;2023-06-04T07:06:42;2.00;;;1.75;;
20711;SDS011;10517;50.742;4.224;2023-06-04T07:09:09;1.50;;;1.40;;
20711;SDS011;10517;50.742;4.224;2023-06-04T07:11:35;2.00;;;1.90;;
20711;SDS011;10517;50.742;4.224;2023-06-04T07:14:01;1.73;;;1.63;;
20711;SDS011;10517;50.742;4.224;2023-06-04T07:16:30;5.07;;;1.95;;
20711;SDS011;10517;50.742;4.224;2023-06-04T07:18:57;2.70;;;1.85;;
20711;SDS011;10517;50.742;4.224;2023-06-04T07:21:22;1.85;;;1.60;;
20711;SDS011;10517;50.742;4.224;2023-06-04T07:23:49;2.17;;;1.55;;
20711;SDS011;10517;50.742;4.224;2023-06-04T07:26:16;2.50;;;1.52;;
20711;SDS011;10517;50.742;4.224;2023-06-04T07:28:42;2.67;;;1.83;;
20711;SDS011;10517;50.742;4.224;2023-06-04T07:31:08;2.90;;;1.90;;
20711;SDS011;10517;50.742;4.224;2023-06-04T07:33:34;1.60;;;1.50;;
20711;SDS011;10517;50.742;4.224;2023-06-04T07:35:59;1.70;;;1.60;;
20711;SDS011;10517;50.742;4.224;2023-06-04T07:38:25;1.95;;;1.75;;
20711;SDS011;10517;50.742;4.224;2023-06-04T07:40:51;1.77;;;1.67;;
20711;SDS011;10517;50.742;4.224;2023-06-04T07:43:17;3.88;;;1.83;;
20711;SDS011;10517;50.742;4.224;2023-06-04T07:45:43;2.25;;;1.63;;
20711;SDS011;10517;50.742;4.224;2023-06-04T07:48:09;1.88;;;1.77;;
20711;SDS011;10517;50.742;4.224;2023-06-04T07:50:35;1.88;;;1.67;;
20711;SDS011;10517;50.742;4.224;2023-06-04T07:53:01;2.65;;;1.50;;
20711;SDS011;10517;50.742;4.224;2023-06-04T07:55:27;2.38;;;1.75;;
20711;SDS011;10517;50.742;4.224;2023-06-04T07:57:53;1.73;;;1.58;;
20711;SDS011;10517;50.742;4.224;2023-06-04T08:00:18;1.92;;;1.60;;
20711;SDS011;10517;50.742;4.224;2023-06-04T08:02:44;1.73;;;1.50;;
20711;SDS011;10517;50.742;4.224;2023-06-04T08:05:10;3.13;;;1.95;;
20711;SDS011;10517;50.742;4.224;2023-06-04T08:07:38;3.13;;;1.83;;
20711;SDS011;10517;50.742;4.224;2023-06-04T08:10:04;2.35;;;1.65;;
20711;SDS011;10517;50.742;4.224;2023-06-04T08:12:31;3.20;;;2.00;;
20711;SDS011;10517;50.742;4.224;2023-06-04T08:14:57;1.95;;;1.85;;
20711;SDS011;10517;50.742;4.224;2023-06-04T08:17:22;3.10;;;1.67;;
20711;SDS011;10517;50.742;4.224;2023-06-04T08:19:48;1.58;;;1.48;;
20711;SDS011;10517;50.742;4.224;2023-06-04T08:22:14;3.63;;;1.58;;
20711;SDS011;10517;50.742;4.224;2023-06-04T08:24:40;1.80;;;1.55;;
20711;SDS011;10517;50.742;4.224;2023-06-04T08:27:06;1.73;;;1.63;;
20711;SDS011;10517;50.742;4.224;2023-06-04T08:29:33;1.50;;;1.40;;
20711;SDS011;10517;50.742;4.224;2023-06-04T08:32:00;3.22;;;1.73;;
20711;SDS011;10517;50.742;4.224;2023-06-04T08:34:27;1.92;;;1.73;;
20711;SDS011;10517;50.742;4.224;2023-06-04T08:36:53;2.60;;;1.40;;
20711;SDS011;10517;50.742;4.224;2023-06-04T08:39:18;1.70;;;1.60;;
20711;SDS011;10517;50.742;4.224;2023-06-04T08:41:46;1.73;;;1.63;;
20711;SDS011;10517;50.742;4.224;2023-06-04T08:44:15;1.50;;;1.40;;
20711;SDS011;10517;50.742;4.224;2023-06-04T08:46:41;1.73;;;1.63;;
20711;SDS011;10517;50.742;4.224;2023-06-04T08:49:09;2.35;;;1.50;;
20711;SDS011;10517;50.742;4.224;2023-06-04T08:51:37;2.72;;;1.95;;
20711;SDS011;10517;50.742;4.224;2023-06-04T08:54:07;1.60;;;1.50;;
20711;SDS011;10517;50.742;4.224;2023-06-04T08:56:34;3.47;;;1.60;;
20711;SDS011;10517;50.742;4.224;2023-06-04T08:59:02;3.25;;;1.50;;
20711;SDS011;10517;50.742;4.224;2023-06-04T09:01:30;3.63;;;1.38;;
20711;SDS011;10517;50.742;4.224;2023-06-04T09:03:57;3.10;;;1.50;;
20711;SDS011;10517;50.742;4.224;2023-06-04T09:06:27;2.05;;;1.80;;
20711;SDS011;10517;50.742;4.224;2023-06-04T09:08:56;2.92;;;1.80;;
20711;SDS011;10517;50.742;4.224;2023-06-04T09:11:31;1.70;;;1.60;;
20711;SDS011;10517;50.742;4.224;2023-06-04T09:14:11;1.60;;;1.38;;
20711;SDS011;10517;50.742;4.224;2023-06-04T09:16:48;1.85;;;1.73;;
20711;SDS011;10517;50.742;4.224;2023-06-04T09:19:17;1.63;;;1.52;;
20711;SDS011;10517;50.742;4.224;2023-06-04T09:21:59;3.67;;;1.75;;
20711;SDS011;10517;50.742;4.224;2023-06-04T09:24:41;2.95;;;1.70;;
20711;SDS011;10517;50.742;4.224;2023-06-04T09:27:15;1.70;;;1.60;;
20711;SDS011;10517;50.742;4.224;2023-06-04T09:29:50;1.80;;;1.70;;
20711;SDS011;10517;50.742;4.224;2023-06-04T09:32:20;1.63;;;1.52;;
20711;SDS011;10517;50.742;4.224;2023-06-04T09:34:50;1.65;;;1.55;;
20711;SDS011;10517;50.742;4.224;2023-06-04T09:37:17;1.60;;;1.50;;
20711;SDS011;10517;50.742;4.224;2023-06-04T09:39:44;1.35;;;1.30;;
20711;SDS011;10517;50.742;4.224;2023-06-04T09:42:18;1.98;;;1.55;;
20711;SDS011;10517;50.742;4.224;2023-06-04T09:44:44;2.22;;;1.85;;
20711;SDS011;10517;50.742;4.224;2023-06-04T09:47:12;1.75;;;1.60;;
20711;SDS011;10517;50.742;4.224;2023-06-04T09:49:42;3.65;;;1.70;;
20711;SDS011;10517;50.742;4.224;2023-06-04T09:52:08;1.70;;;1.60;;
20711;SDS011;10517;50.742;4.224;2023-06-04T09:54:37;3.33;;;1.40;;
20711;SDS011;10517;50.742;4.224;2023-06-04T09:57:14;2.25;;;2.05;;
20711;SDS011;10517;50.742;4.224;2023-06-04T09:59:48;1.60;;;1.50;;
20711;SDS011;10517;50.742;4.224;2023-06-04T10:02:20;3.70;;;1.73;;
20711;SDS011;10517;50.742;4.224;2023-06-04T10:04:56;3.58;;;1.77;;
20711;SDS011;10517;50.742;4.224;2023-06-04T10:07:24;3.78;;;2.20;;
20711;SDS011;10517;50.742;4.224;2023-06-04T10:09:50;1.58;;;1.48;;
20711;SDS011;10517;50.742;4.224;2023-06-04T10:12:19;1.73;;;1.63;;
20711;SDS011;10517;50.742;4.224;2023-06-04T10:14:54;1.70;;;1.60;;
20711;SDS011;10517;50.742;4.224;2023-06-04T10:17:22;3.42;;;1.95;;
20711;SDS011;10517;50.742;4.224;2023-06-04T10:19:50;3.17;;;1.70;;
20711;SDS011;10517;50.742;4.224;2023-06-04T10:22:19;1.98;;;1.80;;
20711;SDS011;10517;50.742;4.224;2023-06-04T10:24:47;3.67;;;1.92;;
20711;SDS011;10517;50.742;4.224;2023-06-04T10:27:14;3.97;;;1.90;;
20711;SDS011;10517;50.742;4.224;2023-06-04T10:29:41;1.63;;;1.52;;
20711;SDS011;10517;50.742;4.224;2023-06-04T10:32:07;1.60;;;1.50;;
20711;SDS011;10517;50.742;4.224;2023-06-04T10:34:33;2.80;;;1.83;;
20711;SDS011;10517;50.742;4.224;2023-06-04T10:37:00;1.77;;;1.65;;
20711;SDS011;10517;50.742;4.224;2023-06-04T10:39:28;4.97;;;2.03;;
20711;SDS011;10517;50.742;4.224;2023-06-04T10:42:04;2.88;;;2.20;;
20711;SDS011;10517;50.742;4.224;2023-06-04T10:44:31;2.63;;;1.98;;
20711;SDS011;10517;50.742;4.224;2023-06-04T10:46:57;1.65;;;1.55;;
20711;SDS011;10517;50.742;4.224;2023-06-04T10:49:29;1.70;;;1.60;;
20711;SDS011;10517;50.742;4.224;2023-06-04T10:51:56;2.28;;;1.60;;
20711;SDS011;10517;50.742;4.224;2023-06-04T10:54:28;2.08;;;1.90;;
20711;SDS011;10517;50.742;4.224;2023-06-04T10:56:54;1.95;;;1.63;;
20711;SDS011;10517;50.742;4.224;2023-06-04T10:59:20;2.05;;;1.70;;
20711;SDS011;10517;50.742;4.224;2023-06-04T11:01:46;2.30;;;1.52;;
20711;SDS011;10517;50.742;4.224;2023-06-04T11:04:19;3.08;;;1.92;;
20711;SDS011;10517;50.742;4.224;2023-06-04T11:06:45;3.03;;;1.73;;
20711;SDS011;10517;50.742;4.224;2023-06-04T11:09:12;1.90;;;1.77;;
20711;SDS011;10517;50.742;4.224;2023-06-04T11:11:43;3.65;;;1.90;;
20711;SDS011;10517;50.742;4.224;2023-06-04T11:14:10;2.90;;;1.80;;
20711;SDS011;10517;50.742;4.224;2023-06-04T11:16:37;4.50;;;1.90;;
20711;SDS011;10517;50.742;4.224;2023-06-04T11:19:03;1.92;;;1.80;;
20711;SDS011;10517;50.742;4.224;2023-06-04T11:21:29;2.20;;;2.10;;
20711;SDS011;10517;50.742;4.224;2023-06-04T11:23:57;5.68;;;2.10;;
20711;SDS011;10517;50.742;4.224;2023-06-04T11:26:33;2.10;;;1.77;;
20711;SDS011;10517;50.742;4.224;2023-06-04T11:29:00;2.55;;;2.08;;
20711;SDS011;10517;50.742;4.224;2023-06-04T11:31:26;1.65;;;1.55;;
20711;SDS011;10517;50.742;4.224;2023-06-04T11:33:52;1.85;;;1.75;;
20711;SDS011;10517;50.742;4.224;2023-06-04T11:36:28;2.45;;;1.92;;
20711;SDS011;10517;50.742;4.224;2023-06-04T11:38:57;1.92;;;1.75;;
20711;SDS011;10517;50.742;4.224;2023-06-04T11:41:27;1.80;;;1.70;;
20711;SDS011;10517;50.742;4.224;2023-06-04T11:43:56;6.45;;;1.92;;
20711;SDS011;10517;50.742;4.224;2023-06-04T11:46:23;2.15;;;1.98;;
20711;SDS011;10517;50.742;4.224;2023-06-04T11:48:51;1.88;;;1.70;;
20711;SDS011;10517;50.742;4.224;2023-06-04T11:51:18;1.63;;;1.48;;
20711;SDS011;10517;50.742;4.224;2023-06-04T11:53:45;1.98;;;1.88;;
20711;SDS011;10517;50.742;4.224;2023-06-04T11:56:11;1.90;;;1.80;;
20711;SDS011;10517;50.742;4.224;2023-06-04T11:58:37;2.05;;;1.83;;
20711;SDS011;10517;50.742;4.224;2023-06-04T12:01:03;2.53;;;2.10;;
20711;SDS011;10517;50.742;4.224;2023-06-04T12:03:36;2.50;;;1.77;;
20711;SDS011;10517;50.742;4.224;2023-06-04T12:06:16;2.30;;;2.15;;
20711;SDS011;10517;50.742;4.224;2023-06-04T12:08:47;2.20;;;1.90;;
20711;SDS011;10517;50.742;4.224;2023-06-04T12:11:30;1.80;;;1.70;;
20711;SDS011;10517;50.742;4.224;2023-06-04T12:13:59;2.58;;;1.73;;
20711;SDS011;10517;50.742;4.224;2023-06-04T12:16:26;2.20;;;2.00;;
20711;SDS011;10517;50.742;4.224;2023-06-04T12:18:52;5.63;;;2.10;;
20711;SDS011;10517;50.742;4.224;2023-06-04T12:21:28;2.20;;;2.00;;
20711;SDS011;10517;50.742;4.224;2023-06-04T12:24:05;3.22;;;2.25;;
20711;SDS011;10517;50.742;4.224;2023-06-04T12:26:32;1.98;;;1.73;;
20711;SDS011;10517;50.742;4.224;2023-06-04T12:29:06;1.88;;;1.77;;
20711;SDS011;10517;50.742;4.224;2023-06-04T12:31:36;1.90;;;1.80;;
20711;SDS011;10517;50.742;4.224;2023-06-04T12:34:02;3.00;;;1.83;;
20711;SDS011;10517;50.742;4.224;2023-06-04T12:36:28;2.05;;;1.88;;
20711;SDS011;10517;50.742;4.224;2023-06-04T12:38:58;1.80;;;1.70;;
20711;SDS011;10517;50.742;4.224;2023-06-04T12:41:25;2.00;;;1.80;;
20711;SDS011;10517;50.742;4.224;2023-06-04T12:43:54;3.17;;;2.22;;
20711;SDS011;10517;50.742;4.224;2023-06-04T12:46:20;1.77;;;1.67;;
20711;SDS011;10517;50.742;4.224;2023-06-04T12:48:47;2.25;;;2.05;;
20711;SDS011;10517;50.742;4.224;2023-06-04T12:51:13;1.83;;;1.70;;
20711;SDS011;10517;50.742;4.224;2023-06-04T12:53:39;2.28;;;2.17;;
20711;SDS011;10517;50.742;4.224;2023-06-04T12:56:05;4.10;;;2.08;;
20711;SDS011;10517;50.742;4.224;2023-06-04T12:58:32;2.72;;;2.10;;
20711;SDS011;10517;50.742;4.224;2023-06-04T13:00:58;2.20;;;2.00;;
20711;SDS011;10517;50.742;4.224;2023-06-04T13:03:23;2.30;;;2.17;;
20711;SDS011;10517;50.742;4.224;2023-06-04T13:05:50;2.08;;;1.98;;
20711;SDS011;10517;50.742;4.224;2023-06-04T13:08:18;2.70;;;2.50;;
20711;SDS011;10517;50.742;4.224;2023-06-04T13:10:45;3.55;;;2.22;;
20711;SDS011;10517;50.742;4.224;2023-06-04T13:13:11;4.28;;;2.30;;
20711;SDS011;10517;50.742;4.224;2023-06-04T13:15:37;2.75;;;2.55;;
20711;SDS011;10517;50.742;4.224;2023-06-04T13:18:02;4.50;;;2.47;;
20711;SDS011;10517;50.742;4.224;2023-06-04T13:20:28;3.10;;;2.78;;
20711;SDS011;10517;50.742;4.224;2023-06-04T13:22:54;2.03;;;1.92;;
20711;SDS011;10517;50.742;4.224;2023-06-04T13:25:20;2.42;;;2.22;;
20711;SDS011;10517;50.742;4.224;2023-06-04T13:27:45;3.72;;;2.33;;
20711;SDS011;10517;50.742;4.224;2023-06-04T13:30:12;2.60;;;2.40;;
20711;SDS011;10517;50.742;4.224;2023-06-04T13:32:38;2.58;;;2.45;;
20711;SDS011;10517;50.742;4.224;2023-06-04T13:35:04;2.50;;;2.40;;
20711;SDS011;10517;50.742;4.224;2023-06-04T13:37:30;2.78;;;2.58;;
20711;SDS011;10517;50.742;4.224;2023-06-04T13:39:56;3.30;;;2.97;;
20711;SDS011;10517;50.742;4.224;2023-06-04T13:42:21;2.70;;;2.50;;
20711;SDS011;10517;50.742;4.224;2023-06-04T13:44:47;2.70;;;2.50;;
20711;SDS011;10517;50.742;4.224;2023-06-04T13:47:13;2.45;;;2.35;;
20711;SDS011;10517;50.742;4.224;2023-06-04T13:49:38;4.20;;;2.80;;
20711;SDS011;10517;50.742;4.224;2023-06-04T13:52:04;3.13;;;2.88;;
20711;SDS011;10517;50.742;4.224;2023-06-04T13:54:30;3.78;;;2.80;;
20711;SDS011;10517;50.742;4.224;2023-06-04T13:56:56;2.75;;;2.55;;
20711;SDS011;10517;50.742;4.224;2023-06-04T13:59:22;2.90;;;2.50;;
20711;SDS011;10517;50.742;4.224;2023-06-04T14:01:47;3.00;;;2.85;;
20711;SDS011;10517;50.742;4.224;2023-06-04T14:04:13;2.78;;;2.58;;
20711;SDS011;10517;50.742;4.224;2023-06-04T14:06:39;2.63;;;2.50;;
20711;SDS011;10517;50.742;4.224;2023-06-04T14:09:04;3.67;;;3.03;;
20711;SDS011;10517;50.742;4.224;2023-06-04T14:11:34;4.07;;;2.60;;
20711;SDS011;10517;50.742;4.224;2023-06-04T14:13:59;3.72;;;2.95;;
20711;SDS011;10517;50.742;4.224;2023-06-04T14:16:26;3.05;;;2.85;;
20711;SDS011;10517;50.742;4.224;2023-06-04T14:18:51;2.88;;;2.67;;
20711;SDS011;10517;50.742;4.224;2023-06-04T14:21:17;6.22;;;2.83;;
20711;SDS011;10517;50.742;4.224;2023-06-04T14:23:43;2.88;;;2.70;;
20711;SDS011;10517;50.742;4.224;2023-06-04T14:26:09;2.65;;;2.45;;
20711;SDS011;10517;50.742;4.224;2023-06-04T14:28:35;2.53;;;2.38;;
20711;SDS011;10517;50.742;4.224;2023-06-04T14:31:01;2.92;;;2.83;;
20711;SDS011;10517;50.742;4.224;2023-06-04T14:33:26;4.53;;;2.75;;
20711;SDS011;10517;50.742;4.224;2023-06-04T14:35:52;2.65;;;2.45;;
20711;SDS011;10517;50.742;4.224;2023-06-04T14:38:17;2.83;;;2.63;;
20711;SDS011;10517;50.742;4.224;2023-06-04T14:40:43;2.90;;;2.50;;
20711;SDS011;10517;50.742;4.224;2023-06-04T14:43:12;2.80;;;2.70;;
20711;SDS011;10517;50.742;4.224;2023-06-04T14:45:38;3.78;;;2.75;;
20711;SDS011;10517;50.742;4.224;2023-06-04T14:48:04;3.03;;;2.83;;
20711;SDS011;10517;50.742;4.224;2023-06-04T14:50:30;2.95;;;2.72;;